KLNN/LNN METAR and TAF weather

Enter ICAO airport designator
Station Type Date Time Source
KLNN METAR 2022/07/01 01:35 UTC NOAA

KLNN 010135Z AUTO 18003KT 10SM CLR 26/10 A3003 RMK AO1 T02570097


Station Type Date Time Source
KLNN Decoded METAR 2022/07/01 01:35 UTC NOAA

Willoughby, OH, United States (KLNN) 41-41N 081-23W
Jun 30, 2022 - 09:35 PM EDT / 2022.07.01 0135 UTC
Wind: from the S (180 degrees) at 3 MPH (3 KT):0
Visibility: 10 mile(s):0
Sky conditions: clear
Temperature: 78.3 F (25.7 C)
Dew Point: 49.5 F (9.7 C)
Relative Humidity: 36%
Pressure (altimeter): 30.03 in. Hg (1016 hPa)
ob: KLNN 010135Z AUTO 18003KT 10SM CLR 26/10 A3003 RMK AO1 T02570097
cycle: 1

Station Type Date Time Source
KLNN TAF UTC NOAA

Error!

Example: see airport list